sensor_id;sensor_type;location;lat;lon;timestamp;pressure;altitude;pressure_sealevel;temperature;humidity
58471;BME280;44258;51.288;12.068;2023-06-19T00:02:06;100176.63;;;20.48;48.80
58471;BME280;44258;51.288;12.068;2023-06-19T00:04:53;100173.59;;;20.51;48.69
58471;BME280;44258;51.288;12.068;2023-06-19T00:07:40;100176.22;;;20.43;49.34
58471;BME280;44258;51.288;12.068;2023-06-19T00:10:28;100179.59;;;20.09;49.97
58471;BME280;44258;51.288;12.068;2023-06-19T00:13:16;100179.50;;;20.19;49.81
58471;BME280;44258;51.288;12.068;2023-06-19T00:16:04;100168.25;;;20.32;49.12
58471;BME280;44258;51.288;12.068;2023-06-19T00:18:51;100175.50;;;20.41;49.13
58471;BME280;44258;51.288;12.068;2023-06-19T00:21:41;100180.41;;;20.38;49.12
58471;BME280;44258;51.288;12.068;2023-06-19T00:24:28;100187.84;;;20.45;48.96
58471;BME280;44258;51.288;12.068;2023-06-19T00:27:15;100173.47;;;20.71;48.52
58471;BME280;44258;51.288;12.068;2023-06-19T00:30:05;100171.75;;;20.52;48.75
58471;BME280;44258;51.288;12.068;2023-06-19T00:32:52;100171.75;;;20.52;48.76
58471;BME280;44258;51.288;12.068;2023-06-19T00:35:39;100174.50;;;20.42;49.34
58471;BME280;44258;51.288;12.068;2023-06-19T00:38:27;100157.00;;;20.35;49.09
58471;BME280;44258;51.288;12.068;2023-06-19T00:41:14;100163.06;;;20.57;48.28
58471;BME280;44258;51.288;12.068;2023-06-19T00:44:01;100156.91;;;20.55;48.00
58471;BME280;44258;51.288;12.068;2023-06-19T00:46:50;100153.47;;;20.70;47.18
58471;BME280;44258;51.288;12.068;2023-06-19T00:49:40;100149.28;;;20.58;47.68
58471;BME280;44258;51.288;12.068;2023-06-19T00:52:27;100141.69;;;20.52;47.77
58471;BME280;44258;51.288;12.068;2023-06-19T00:55:14;100143.88;;;20.66;47.38
58471;BME280;44258;51.288;12.068;2023-06-19T00:58:03;100141.53;;;20.53;47.55
58471;BME280;44258;51.288;12.068;2023-06-19T01:00:50;100137.81;;;20.45;47.92
58471;BME280;44258;51.288;12.068;2023-06-19T01:03:41;100142.44;;;20.44;48.57
58471;BME280;44258;51.288;12.068;2023-06-19T01:06:40;100136.00;;;20.36;48.89
58471;BME280;44258;51.288;12.068;2023-06-19T01:09:34;100139.84;;;20.43;47.96
58471;BME280;44258;51.288;12.068;2023-06-19T01:12:33;100128.59;;;20.46;47.63
58471;BME280;44258;51.288;12.068;2023-06-19T01:15:22;100129.75;;;20.53;47.45
58471;BME280;44258;51.288;12.068;2023-06-19T01:18:09;100128.22;;;20.41;48.06
58471;BME280;44258;51.288;12.068;2023-06-19T01:21:10;100130.41;;;20.37;48.61
58471;BME280;44258;51.288;12.068;2023-06-19T01:24:02;100128.59;;;20.46;47.84
58471;BME280;44258;51.288;12.068;2023-06-19T01:26:49;100121.84;;;20.50;47.76
58471;BME280;44258;51.288;12.068;2023-06-19T01:29:35;100126.34;;;20.41;47.39
58471;BME280;44258;51.288;12.068;2023-06-19T01:32:26;100124.38;;;20.33;47.69
58471;BME280;44258;51.288;12.068;2023-06-19T01:35:19;100116.88;;;20.36;47.39
58471;BME280;44258;51.288;12.068;2023-06-19T01:38:08;100117.91;;;20.34;47.70
58471;BME280;44258;51.288;12.068;2023-06-19T01:40:59;100110.34;;;20.28;48.04
58471;BME280;44258;51.288;12.068;2023-06-19T01:43:47;100106.91;;;20.26;48.42
58471;BME280;44258;51.288;12.068;2023-06-19T01:46:35;100110.50;;;20.27;48.26
58471;BME280;44258;51.288;12.068;2023-06-19T01:49:23;100107.44;;;20.12;48.19
58471;BME280;44258;51.288;12.068;2023-06-19T01:52:10;100107.56;;;19.92;48.16
58471;BME280;44258;51.288;12.068;2023-06-19T01:54:56;100110.88;;;19.86;48.42
58471;BME280;44258;51.288;12.068;2023-06-19T01:57:45;100101.59;;;19.79;48.70
58471;BME280;44258;51.288;12.068;2023-06-19T02:00:33;100099.97;;;19.86;48.87
58471;BME280;44258;51.288;12.068;2023-06-19T02:03:21;100099.63;;;19.99;48.18
58471;BME280;44258;51.288;12.068;2023-06-19T02:06:07;100101.59;;;20.25;47.32
58471;BME280;44258;51.288;12.068;2023-06-19T02:08:54;100099.88;;;20.06;47.92
58471;BME280;44258;51.288;12.068;2023-06-19T02:11:41;100098.94;;;20.15;47.48
58471;BME280;44258;51.288;12.068;2023-06-19T02:14:29;100097.13;;;20.06;47.82
58471;BME280;44258;51.288;12.068;2023-06-19T02:17:16;100081.63;;;20.06;47.94
58471;BME280;44258;51.288;12.068;2023-06-19T02:20:04;100083.69;;;19.94;48.34
58471;BME280;44258;51.288;12.068;2023-06-19T02:22:53;100074.63;;;19.76;48.60
58471;BME280;44258;51.288;12.068;2023-06-19T02:25:40;100078.66;;;19.62;49.05
58471;BME280;44258;51.288;12.068;2023-06-19T02:28:26;100085.81;;;19.73;49.15
58471;BME280;44258;51.288;12.068;2023-06-19T02:31:15;100078.94;;;19.69;48.80
58471;BME280;44258;51.288;12.068;2023-06-19T02:34:01;100084.94;;;19.72;48.63
58471;BME280;44258;51.288;12.068;2023-06-19T02:36:48;100082.38;;;19.99;48.74
58471;BME280;44258;51.288;12.068;2023-06-19T02:39:35;100088.44;;;19.92;49.05
58471;BME280;44258;51.288;12.068;2023-06-19T02:42:22;100090.38;;;19.72;49.92
58471;BME280;44258;51.288;12.068;2023-06-19T02:45:09;100085.22;;;19.79;50.13
58471;BME280;44258;51.288;12.068;2023-06-19T02:47:57;100088.34;;;19.84;49.89
58471;BME280;44258;51.288;12.068;2023-06-19T02:50:44;100088.44;;;19.92;49.36
58471;BME280;44258;51.288;12.068;2023-06-19T02:53:30;100081.06;;;20.21;48.23
58471;BME280;44258;51.288;12.068;2023-06-19T02:56:17;100079.59;;;20.08;48.47
58471;BME280;44258;51.288;12.068;2023-06-19T02:59:04;100083.53;;;19.96;48.58
58471;BME280;44258;51.288;12.068;2023-06-19T03:01:51;100086.88;;;20.18;48.18
58471;BME280;44258;51.288;12.068;2023-06-19T03:04:40;100085.75;;;20.10;48.30
58471;BME280;44258;51.288;12.068;2023-06-19T03:07:27;100091.72;;;19.96;48.33
58471;BME280;44258;51.288;12.068;2023-06-19T03:10:14;100084.19;;;20.08;47.86
58471;BME280;44258;51.288;12.068;2023-06-19T03:13:01;100084.47;;;19.87;48.86
58471;BME280;44258;51.288;12.068;2023-06-19T03:15:47;100074.72;;;19.84;48.45
58471;BME280;44258;51.288;12.068;2023-06-19T03:18:34;100077.09;;;19.60;49.29
58471;BME280;44258;51.288;12.068;2023-06-19T03:21:22;100072.59;;;19.78;49.61
58471;BME280;44258;51.288;12.068;2023-06-19T03:24:09;100076.66;;;19.64;49.78
58471;BME280;44258;51.288;12.068;2023-06-19T03:26:56;100081.25;;;19.73;49.25
58471;BME280;44258;51.288;12.068;2023-06-19T03:29:43;100087.03;;;19.61;49.85
58471;BME280;44258;51.288;12.068;2023-06-19T03:32:29;100079.69;;;19.61;49.79
58471;BME280;44258;51.288;12.068;2023-06-19T03:35:16;100086.31;;;19.86;49.04
58471;BME280;44258;51.288;12.068;2023-06-19T03:38:05;100086.97;;;19.98;48.75
58471;BME280;44258;51.288;12.068;2023-06-19T03:40:52;100082.50;;;19.79;49.32
58471;BME280;44258;51.288;12.068;2023-06-19T03:43:39;100085.97;;;19.71;49.46
58471;BME280;44258;51.288;12.068;2023-06-19T03:46:26;100078.31;;;19.85;49.13
58471;BME280;44258;51.288;12.068;2023-06-19T03:49:13;100085.72;;;19.65;49.89
58471;BME280;44258;51.288;12.068;2023-06-19T03:52:00;100095.91;;;19.63;50.04
58471;BME280;44258;51.288;12.068;2023-06-19T03:54:48;100097.31;;;19.67;50.38
58471;BME280;44258;51.288;12.068;2023-06-19T03:57:35;100100.75;;;19.69;50.23
58471;BME280;44258;51.288;12.068;2023-06-19T04:00:23;100099.53;;;19.91;49.68
58471;BME280;44258;51.288;12.068;2023-06-19T04:03:10;100093.00;;;19.74;50.27
58471;BME280;44258;51.288;12.068;2023-06-19T04:05:57;100085.06;;;19.43;51.24
58471;BME280;44258;51.288;12.068;2023-06-19T04:08:43;100090.50;;;19.53;50.55
58471;BME280;44258;51.288;12.068;2023-06-19T04:11:31;100091.44;;;19.34;50.96
58471;BME280;44258;51.288;12.068;2023-06-19T04:14:18;100097.63;;;19.26;51.71
58471;BME280;44258;51.288;12.068;2023-06-19T04:17:08;100081.97;;;19.28;51.47
58471;BME280;44258;51.288;12.068;2023-06-19T04:19:55;100092.69;;;19.40;51.38
58471;BME280;44258;51.288;12.068;2023-06-19T04:22:42;100093.34;;;19.24;52.13
58471;BME280;44258;51.288;12.068;2023-06-19T04:25:29;100092.69;;;19.40;51.33
58471;BME280;44258;51.288;12.068;2023-06-19T04:28:18;100093.00;;;19.37;52.06
58471;BME280;44258;51.288;12.068;2023-06-19T04:31:05;100097.81;;;19.52;51.49
58471;BME280;44258;51.288;12.068;2023-06-19T04:33:52;100087.03;;;19.61;51.14
58471;BME280;44258;51.288;12.068;2023-06-19T04:36:41;100093.19;;;19.63;51.00
58471;BME280;44258;51.288;12.068;2023-06-19T04:39:29;100099.75;;;19.70;50.87
58471;BME280;44258;51.288;12.068;2023-06-19T04:42:16;100092.28;;;20.00;50.20
58471;BME280;44258;51.288;12.068;2023-06-19T04:45:10;100087.03;;;19.88;50.45
58471;BME280;44258;51.288;12.068;2023-06-19T04:47:57;100093.81;;;19.84;50.70
58471;BME280;44258;51.288;12.068;2023-06-19T04:50:45;100095.06;;;19.90;50.85
58471;BME280;44258;51.288;12.068;2023-06-19T04:53:32;100095.19;;;20.16;50.15
58471;BME280;44258;51.288;12.068;2023-06-19T04:56:19;100103.91;;;20.02;50.83
58471;BME280;44258;51.288;12.068;2023-06-19T04:59:05;100123.59;;;20.05;51.06
58471;BME280;44258;51.288;12.068;2023-06-19T05:01:54;100115.31;;;20.15;50.79
58471;BME280;44258;51.288;12.068;2023-06-19T05:04:43;100121.31;;;20.19;50.83
58471;BME280;44258;51.288;12.068;2023-06-19T05:07:30;100134.22;;;20.26;50.14
58471;BME280;44258;51.288;12.068;2023-06-19T05:10:17;100131.88;;;20.31;50.62
58471;BME280;44258;51.288;12.068;2023-06-19T05:13:04;100109.84;;;20.15;51.47
58471;BME280;44258;51.288;12.068;2023-06-19T05:15:51;100111.41;;;20.00;53.31
58471;BME280;44258;51.288;12.068;2023-06-19T05:18:39;100109.84;;;19.97;53.16
58471;BME280;44258;51.288;12.068;2023-06-19T05:21:26;100118.53;;;19.83;53.46
58471;BME280;44258;51.288;12.068;2023-06-19T05:24:15;100116.34;;;19.86;54.04
58471;BME280;44258;51.288;12.068;2023-06-19T05:27:04;100103.41;;;19.88;55.11
58471;BME280;44258;51.288;12.068;2023-06-19T05:29:51;100115.59;;;19.94;56.01
58471;BME280;44258;51.288;12.068;2023-06-19T05:32:38;100126.19;;;19.60;56.48
58471;BME280;44258;51.288;12.068;2023-06-19T05:35:26;100130.66;;;19.98;56.05
58471;BME280;44258;51.288;12.068;2023-06-19T05:38:13;100117.50;;;20.11;55.50
58471;BME280;44258;51.288;12.068;2023-06-19T05:41:01;100121.09;;;20.12;55.28
58471;BME280;44258;51.288;12.068;2023-06-19T05:43:48;100117.94;;;20.07;54.96
58471;BME280;44258;51.288;12.068;2023-06-19T05:46:35;100109.84;;;19.97;55.63
58471;BME280;44258;51.288;12.068;2023-06-19T05:49:22;100103.59;;;19.87;56.42
58471;BME280;44258;51.288;12.068;2023-06-19T05:52:10;100114.09;;;19.72;57.48
58471;BME280;44258;51.288;12.068;2023-06-19T05:55:00;100118.13;;;19.78;58.57
58471;BME280;44258;51.288;12.068;2023-06-19T05:57:47;100124.03;;;20.01;57.33
58471;BME280;44258;51.288;12.068;2023-06-19T06:00:34;100128.53;;;20.20;56.92
58471;BME280;44258;51.288;12.068;2023-06-19T06:03:21;100143.72;;;20.22;57.52
58471;BME280;44258;51.288;12.068;2023-06-19T06:06:08;100141.03;;;20.40;57.36
58471;BME280;44258;51.288;12.068;2023-06-19T06:08:56;100143.28;;;20.45;56.11
58471;BME280;44258;51.288;12.068;2023-06-19T06:11:45;100137.88;;;20.35;55.67
58471;BME280;44258;51.288;12.068;2023-06-19T06:14:33;100140.28;;;20.20;56.01
58471;BME280;44258;51.288;12.068;2023-06-19T06:17:20;100146.22;;;20.33;55.50
58471;BME280;44258;51.288;12.068;2023-06-19T06:20:07;100142.94;;;20.12;55.60
58471;BME280;44258;51.288;12.068;2023-06-19T06:22:58;100149.16;;;20.04;56.44
58471;BME280;44258;51.288;12.068;2023-06-19T06:25:46;100151.88;;;20.04;56.96
58471;BME280;44258;51.288;12.068;2023-06-19T06:28:33;100156.72;;;20.10;57.41
58471;BME280;44258;51.288;12.068;2023-06-19T06:31:22;100160.66;;;20.26;56.89
58471;BME280;44258;51.288;12.068;2023-06-19T06:34:09;100162.59;;;20.33;57.05
58471;BME280;44258;51.288;12.068;2023-06-19T06:36:56;100155.53;;;20.41;56.99
58471;BME280;44258;51.288;12.068;2023-06-19T06:39:45;100156.25;;;20.43;56.67
58471;BME280;44258;51.288;12.068;2023-06-19T06:42:33;100158.56;;;20.38;57.64
58471;BME280;44258;51.288;12.068;2023-06-19T06:45:20;100168.78;;;20.18;58.35
58471;BME280;44258;51.288;12.068;2023-06-19T06:48:07;100164.91;;;20.38;58.32
58471;BME280;44258;51.288;12.068;2023-06-19T06:50:54;100166.22;;;20.34;58.35
58471;BME280;44258;51.288;12.068;2023-06-19T06:53:46;100161.66;;;20.52;58.14
58471;BME280;44258;51.288;12.068;2023-06-19T06:56:33;100159.09;;;20.69;57.26
58471;BME280;44258;51.288;12.068;2023-06-19T06:59:21;100157.84;;;20.63;56.73
58471;BME280;44258;51.288;12.068;2023-06-19T07:02:08;100169.00;;;20.70;57.80
58471;BME280;44258;51.288;12.068;2023-06-19T07:04:55;100164.88;;;20.84;57.34
58471;BME280;44258;51.288;12.068;2023-06-19T07:07:43;100166.13;;;20.89;56.94
58471;BME280;44258;51.288;12.068;2023-06-19T07:10:30;100165.63;;;20.94;56.16
58471;BME280;44258;51.288;12.068;2023-06-19T07:13:17;100172.28;;;20.91;56.14
58471;BME280;44258;51.288;12.068;2023-06-19T07:16:05;100175.50;;;20.87;56.29
58471;BME280;44258;51.288;12.068;2023-06-19T07:18:52;100174.38;;;20.80;56.21
58471;BME280;44258;51.288;12.068;2023-06-19T07:21:40;100168.22;;;20.78;56.84
58471;BME280;44258;51.288;12.068;2023-06-19T07:24:27;100174.88;;;20.93;56.51
58471;BME280;44258;51.288;12.068;2023-06-19T07:27:14;100169.09;;;21.22;56.26
58471;BME280;44258;51.288;12.068;2023-06-19T07:30:01;100172.69;;;21.23;56.47
58471;BME280;44258;51.288;12.068;2023-06-19T07:32:49;100173.50;;;21.15;56.36
58471;BME280;44258;51.288;12.068;2023-06-19T07:35:37;100169.81;;;21.42;56.22
58471;BME280;44258;51.288;12.068;2023-06-19T07:38:24;100160.50;;;21.61;56.03
58471;BME280;44258;51.288;12.068;2023-06-19T07:41:10;100176.16;;;21.77;55.26
58471;BME280;44258;51.288;12.068;2023-06-19T07:44:00;100177.38;;;22.09;55.41
58471;BME280;44258;51.288;12.068;2023-06-19T07:46:47;100180.53;;;22.30;54.93
58471;BME280;44258;51.288;12.068;2023-06-19T07:49:35;100187.78;;;22.56;54.38
58471;BME280;44258;51.288;12.068;2023-06-19T07:52:22;100190.50;;;22.40;53.54
58471;BME280;44258;51.288;12.068;2023-06-19T07:55:09;100192.09;;;22.67;53.50
58471;BME280;44258;51.288;12.068;2023-06-19T07:57:56;100192.50;;;22.80;52.54
58471;BME280;44258;51.288;12.068;2023-06-19T08:00:43;100199.31;;;22.68;51.58
58471;BME280;44258;51.288;12.068;2023-06-19T08:03:30;100198.31;;;22.93;51.26
58471;BME280;44258;51.288;12.068;2023-06-19T08:06:18;100187.19;;;23.11;50.88
58471;BME280;44258;51.288;12.068;2023-06-19T08:09:05;100192.84;;;23.26;50.80
58471;BME280;44258;51.288;12.068;2023-06-19T08:11:53;100184.38;;;23.77;50.02
58471;BME280;44258;51.288;12.068;2023-06-19T08:14:40;100184.50;;;24.40;48.67
58471;BME280;44258;51.288;12.068;2023-06-19T08:17:27;100181.94;;;24.69;47.50
58471;BME280;44258;51.288;12.068;2023-06-19T08:20:15;100179.75;;;25.11;44.54
58471;BME280;44258;51.288;12.068;2023-06-19T08:23:04;100187.66;;;25.29;45.36
58471;BME280;44258;51.288;12.068;2023-06-19T08:25:50;100175.44;;;25.69;43.54
58471;BME280;44258;51.288;12.068;2023-06-19T08:28:37;100180.19;;;26.05;42.30
58471;BME280;44258;51.288;12.068;2023-06-19T08:31:26;100180.06;;;26.28;39.60
58471;BME280;44258;51.288;12.068;2023-06-19T08:34:14;100184.31;;;26.61;39.98
58471;BME280;44258;51.288;12.068;2023-06-19T08:37:01;100177.97;;;26.30;38.18
58471;BME280;44258;51.288;12.068;2023-06-19T08:39:49;100181.22;;;26.19;38.72
58471;BME280;44258;51.288;12.068;2023-06-19T08:42:36;100175.69;;;26.19;38.12
58471;BME280;44258;51.288;12.068;2023-06-19T08:45:26;100166.78;;;26.17;38.69
58471;BME280;44258;51.288;12.068;2023-06-19T08:48:16;100167.06;;;26.22;39.26
58471;BME280;44258;51.288;12.068;2023-06-19T08:51:05;100162.97;;;26.18;38.59
58471;BME280;44258;51.288;12.068;2023-06-19T08:53:55;100167.44;;;26.19;38.56
58471;BME280;44258;51.288;12.068;2023-06-19T08:56:46;100162.88;;;26.26;39.70
58471;BME280;44258;51.288;12.068;2023-06-19T08:59:34;100158.25;;;26.48;38.82
58471;BME280;44258;51.288;12.068;2023-06-19T09:02:20;100161.00;;;26.48;39.70
58471;BME280;44258;51.288;12.068;2023-06-19T09:05:12;100154.13;;;26.59;37.56
58471;BME280;44258;51.288;12.068;2023-06-19T09:08:00;100163.69;;;27.21;38.20
58471;BME280;44258;51.288;12.068;2023-06-19T09:10:57;100166.75;;;27.33;35.77
58471;BME280;44258;51.288;12.068;2023-06-19T09:13:45;100161.69;;;27.37;35.88
58471;BME280;44258;51.288;12.068;2023-06-19T09:16:37;100155.66;;;27.26;36.68
58471;BME280;44258;51.288;12.068;2023-06-19T09:19:25;100153.78;;;27.62;36.77
58471;BME280;44258;51.288;12.068;2023-06-19T09:22:11;100152.44;;;28.21;35.62
58471;BME280;44258;51.288;12.068;2023-06-19T09:25:00;100158.22;;;28.33;34.79
58471;BME280;44258;51.288;12.068;2023-06-19T09:27:47;100155.44;;;28.26;34.68
58471;BME280;44258;51.288;12.068;2023-06-19T09:30:35;100161.16;;;28.18;34.80
58471;BME280;44258;51.288;12.068;2023-06-19T09:33:23;100167.28;;;28.13;34.37
58471;BME280;44258;51.288;12.068;2023-06-19T09:36:10;100164.28;;;28.01;33.21
58471;BME280;44258;51.288;12.068;2023-06-19T09:38:58;100164.69;;;28.05;33.49
58471;BME280;44258;51.288;12.068;2023-06-19T09:41:46;100159.09;;;27.92;33.69
58471;BME280;44258;51.288;12.068;2023-06-19T09:44:40;100161.16;;;28.18;34.14
58471;BME280;44258;51.288;12.068;2023-06-19T09:47:36;100161.84;;;28.33;34.11
58471;BME280;44258;51.288;12.068;2023-06-19T09:50:26;100149.19;;;28.72;32.98
58471;BME280;44258;51.288;12.068;2023-06-19T09:53:14;100153.94;;;28.85;31.55
58471;BME280;44258;51.288;12.068;2023-06-19T09:56:01;100153.31;;;28.96;32.33
58471;BME280;44258;51.288;12.068;2023-06-19T09:58:50;100159.06;;;29.08;32.06
58471;BME280;44258;51.288;12.068;2023-06-19T10:01:39;100162.06;;;29.20;31.31
58471;BME280;44258;51.288;12.068;2023-06-19T10:04:27;100152.47;;;29.29;29.29
58471;BME280;44258;51.288;12.068;2023-06-19T10:07:15;100150.53;;;29.23;29.67
58471;BME280;44258;51.288;12.068;2023-06-19T10:10:04;100151.59;;;29.35;30.23
58471;BME280;44258;51.288;12.068;2023-06-19T10:12:54;100157.81;;;29.51;29.52
58471;BME280;44258;51.288;12.068;2023-06-19T10:15:43;100144.59;;;29.46;29.58
58471;BME280;44258;51.288;12.068;2023-06-19T10:18:31;100157.16;;;29.48;30.20
58471;BME280;44258;51.288;12.068;2023-06-19T10:21:21;100148.84;;;29.08;30.15
58471;BME280;44258;51.288;12.068;2023-06-19T10:24:14;100156.50;;;29.06;29.88
58471;BME280;44258;51.288;12.068;2023-06-19T10:27:04;100147.94;;;28.81;31.08
58471;BME280;44258;51.288;12.068;2023-06-19T10:29:54;100146.06;;;29.08;30.88
58471;BME280;44258;51.288;12.068;2023-06-19T10:32:43;100154.81;;;29.19;30.96
58471;BME280;44258;51.288;12.068;2023-06-19T10:35:37;100147.38;;;29.19;30.57
58471;BME280;44258;51.288;12.068;2023-06-19T10:38:26;100135.00;;;29.42;30.85
58471;BME280;44258;51.288;12.068;2023-06-19T10:41:15;100127.53;;;29.56;30.41
58471;BME280;44258;51.288;12.068;2023-06-19T10:44:03;100127.09;;;29.72;30.06
58471;BME280;44258;51.288;12.068;2023-06-19T10:46:52;100134.69;;;29.97;30.51
58471;BME280;44258;51.288;12.068;2023-06-19T10:49:39;100134.69;;;29.97;29.51
58471;BME280;44258;51.288;12.068;2023-06-19T10:52:28;100133.00;;;29.89;29.50
58471;BME280;44258;51.288;12.068;2023-06-19T10:55:16;100127.00;;;29.92;29.45
58471;BME280;44258;51.288;12.068;2023-06-19T10:58:03;100132.97;;;29.96;29.41
58471;BME280;44258;51.288;12.068;2023-06-19T11:00:50;100130.84;;;29.91;28.78
58471;BME280;44258;51.288;12.068;2023-06-19T11:03:37;100136.25;;;30.31;28.54
58471;BME280;44258;51.288;12.068;2023-06-19T11:06:24;100134.59;;;30.23;28.90
58471;BME280;44258;51.288;12.068;2023-06-19T11:09:12;100136.13;;;30.58;27.62
58471;BME280;44258;51.288;12.068;2023-06-19T11:12:01;100133.34;;;30.64;28.36
58471;BME280;44258;51.288;12.068;2023-06-19T11:14:48;100140.28;;;30.80;29.00
58471;BME280;44258;51.288;12.068;2023-06-19T11:17:35;100137.66;;;30.85;28.02
58471;BME280;44258;51.288;12.068;2023-06-19T11:20:22;100141.53;;;30.84;28.41
58471;BME280;44258;51.288;12.068;2023-06-19T11:23:10;100142.03;;;31.00;27.88
58471;BME280;44258;51.288;12.068;2023-06-19T11:26:06;100139.88;;;31.02;28.08
58471;BME280;44258;51.288;12.068;2023-06-19T11:28:56;100133.84;;;31.12;27.14
58471;BME280;44258;51.288;12.068;2023-06-19T11:31:43;100141.34;;;31.11;27.46
58471;BME280;44258;51.288;12.068;2023-06-19T11:34:31;100139.31;;;30.93;27.75
58471;BME280;44258;51.288;12.068;2023-06-19T11:37:19;100141.50;;;31.16;28.16
58471;BME280;44258;51.288;12.068;2023-06-19T11:40:07;100136.06;;;31.28;26.73
58471;BME280;44258;51.288;12.068;2023-06-19T11:43:00;100139.09;;;31.45;27.81
58471;BME280;44258;51.288;12.068;2023-06-19T11:45:49;100143.38;;;31.47;26.39
58471;BME280;44258;51.288;12.068;2023-06-19T11:48:37;100140.44;;;31.17;27.39
58471;BME280;44258;51.288;12.068;2023-06-19T11:51:24;100138.34;;;31.13;27.20
58471;BME280;44258;51.288;12.068;2023-06-19T11:54:12;100136.41;;;31.13;26.86
58471;BME280;44258;51.288;12.068;2023-06-19T11:57:00;100140.78;;;30.96;26.64
58471;BME280;44258;51.288;12.068;2023-06-19T11:59:47;100137.44;;;30.87;25.40
58471;BME280;44258;51.288;12.068;2023-06-19T12:02:35;100131.53;;;30.77;26.02
58471;BME280;44258;51.288;12.068;2023-06-19T12:05:22;100131.69;;;30.82;25.79
58471;BME280;44258;51.288;12.068;2023-06-19T12:08:09;100130.97;;;30.93;26.54
58471;BME280;44258;51.288;12.068;2023-06-19T12:10:56;100127.78;;;31.21;25.50
58471;BME280;44258;51.288;12.068;2023-06-19T12:13:43;100133.53;;;31.45;24.27
58471;BME280;44258;51.288;12.068;2023-06-19T12:16:30;100118.50;;;31.53;23.98
58471;BME280;44258;51.288;12.068;2023-06-19T12:19:18;100117.34;;;31.60;24.69
58471;BME280;44258;51.288;12.068;2023-06-19T12:22:05;100111.88;;;31.54;25.57
58471;BME280;44258;51.288;12.068;2023-06-19T12:24:52;100103.03;;;31.63;25.90
58471;BME280;44258;51.288;12.068;2023-06-19T12:27:39;100106.81;;;31.87;26.56
58471;BME280;44258;51.288;12.068;2023-06-19T12:30:26;100102.63;;;31.97;25.65
58471;BME280;44258;51.288;12.068;2023-06-19T12:33:16;100102.16;;;32.00;25.73
58471;BME280;44258;51.288;12.068;2023-06-19T12:36:05;100096.03;;;32.10;25.69
58471;BME280;44258;51.288;12.068;2023-06-19T12:38:54;100102.16;;;32.00;26.76
58471;BME280;44258;51.288;12.068;2023-06-19T12:41:41;100103.88;;;32.01;25.63
58471;BME280;44258;51.288;12.068;2023-06-19T12:44:28;100095.44;;;32.07;26.21
58471;BME280;44258;51.288;12.068;2023-06-19T12:47:15;100101.69;;;32.03;26.71
58471;BME280;44258;51.288;12.068;2023-06-19T12:50:04;100089.63;;;32.09;26.81
58471;BME280;44258;51.288;12.068;2023-06-19T12:52:52;100085.63;;;32.05;25.67
58471;BME280;44258;51.288;12.068;2023-06-19T12:55:39;100094.44;;;31.83;26.19
58471;BME280;44258;51.288;12.068;2023-06-19T12:58:26;100084.22;;;31.65;25.97
58471;BME280;44258;51.288;12.068;2023-06-19T13:01:13;100078.81;;;31.27;26.23
58471;BME280;44258;51.288;12.068;2023-06-19T13:04:00;100079.19;;;31.31;26.90
58471;BME280;44258;51.288;12.068;2023-06-19T13:06:47;100080.56;;;31.21;27.28
58471;BME280;44258;51.288;12.068;2023-06-19T13:09:36;100085.22;;;31.27;26.96
58471;BME280;44258;51.288;12.068;2023-06-19T13:12:23;100092.47;;;31.47;27.26
58471;BME280;44258;51.288;12.068;2023-06-19T13:15:10;100087.00;;;31.59;27.15
58471;BME280;44258;51.288;12.068;2023-06-19T13:17:57;100089.75;;;31.65;27.05
58471;BME280;44258;51.288;12.068;2023-06-19T13:20:45;100088.28;;;31.81;27.36
58471;BME280;44258;51.288;12.068;2023-06-19T13:23:33;100088.09;;;31.39;26.98
58471;BME280;44258;51.288;12.068;2023-06-19T13:26:21;100086.78;;;31.42;27.30
58471;BME280;44258;51.288;12.068;2023-06-19T13:29:08;100084.94;;;31.54;27.01
58471;BME280;44258;51.288;12.068;2023-06-19T13:31:55;100080.28;;;31.48;26.17
58471;BME280;44258;51.288;12.068;2023-06-19T13:34:42;100081.97;;;31.49;27.60
58471;BME280;44258;51.288;12.068;2023-06-19T13:37:29;100086.72;;;31.67;27.50
58471;BME280;44258;51.288;12.068;2023-06-19T13:40:16;100085.97;;;31.78;26.94
58471;BME280;44258;51.288;12.068;2023-06-19T13:43:04;100084.91;;;31.36;27.47
58471;BME280;44258;51.288;12.068;2023-06-19T13:45:52;100085.31;;;31.39;27.40
58471;BME280;44258;51.288;12.068;2023-06-19T13:48:40;100088.09;;;31.58;27.81
58471;BME280;44258;51.288;12.068;2023-06-19T13:51:27;100082.91;;;31.43;27.31
58471;BME280;44258;51.288;12.068;2023-06-19T13:54:14;100075.66;;;31.42;27.74
58471;BME280;44258;51.288;12.068;2023-06-19T13:57:01;100076.38;;;31.56;27.49
58471;BME280;44258;51.288;12.068;2023-06-19T13:59:49;100072.56;;;31.50;27.68
58471;BME280;44258;51.288;12.068;2023-06-19T14:02:36;100077.72;;;31.72;29.02
58471;BME280;44258;51.288;12.068;2023-06-19T14:05:23;100077.13;;;31.63;27.57
58471;BME280;44258;51.288;12.068;2023-06-19T14:08:12;100076.31;;;31.81;27.16
58471;BME280;44258;51.288;12.068;2023-06-19T14:10:59;100079.00;;;31.87;27.51
58471;BME280;44258;51.288;12.068;2023-06-19T14:13:45;100069.31;;;32.09;27.89
58471;BME280;44258;51.288;12.068;2023-06-19T14:16:35;100072.88;;;32.16;27.92
58471;BME280;44258;51.288;12.068;2023-06-19T14:19:22;100078.75;;;32.07;28.18
58471;BME280;44258;51.288;12.068;2023-06-19T14:22:09;100071.94;;;32.03;28.04
58471;BME280;44258;51.288;12.068;2023-06-19T14:24:56;100074.03;;;31.90;27.87
58471;BME280;44258;51.288;12.068;2023-06-19T14:27:45;100069.50;;;31.77;28.34